Fort Klamath, Oregon
Current Conditions -  °F | °C
As of 1:53 PM on Tuesday 25 Nov 2014 (Local Time) from KLMT Reporting Station
Clear Clear  
Wind Chill: 56°   Ceiling: Unl
Heat Index: 56°   Visibility: 10mi
Dew Point: 40°   Wind: 10mph
Humidity: 55%   Direction: 270°W
Pressure: 30.43"   Gusts: NA
Location:  42.7°N, 122°W
Report Text: KLMT 252153Z 27009KT 10SM CLR 13/04 A3043 RMK AO2 SLP297 T01330044
Loading
Personal Weather Stations






























Interactive Weather Map New forecast layout! Learn more

10-Day Weather Forecast

Advertisements
Track Severe Weather on mobile